sensor_id;sensor_type;location;lat;lon;timestamp;P1;durP1;ratioP1;P2;durP2;ratioP2
44694;SDS011;32845;59.422;17.930;2022-07-23T00:03:26;45.95;;;8.23;;
44694;SDS011;32845;59.422;17.930;2022-07-23T00:07:57;41.72;;;8.30;;
44694;SDS011;32845;59.422;17.930;2022-07-23T00:12:27;41.90;;;8.23;;
44694;SDS011;32845;59.422;17.930;2022-07-23T00:16:58;58.38;;;8.98;;
44694;SDS011;32845;59.422;17.930;2022-07-23T00:21:28;37.05;;;9.10;;
44694;SDS011;32845;59.422;17.930;2022-07-23T00:25:59;37.28;;;7.80;;
44694;SDS011;32845;59.422;17.930;2022-07-23T00:30:30;35.15;;;8.30;;
44694;SDS011;32845;59.422;17.930;2022-07-23T00:35:01;45.95;;;8.13;;
44694;SDS011;32845;59.422;17.930;2022-07-23T00:39:32;39.83;;;7.97;;
44694;SDS011;32845;59.422;17.930;2022-07-23T00:44:22;43.40;;;8.27;;
44694;SDS011;32845;59.422;17.930;2022-07-23T00:48:54;36.13;;;7.78;;
44694;SDS011;32845;59.422;17.930;2022-07-23T00:53:24;34.08;;;7.47;;
44694;SDS011;32845;59.422;17.930;2022-07-23T00:57:55;24.05;;;6.60;;
44694;SDS011;32845;59.422;17.930;2022-07-23T01:02:27;27.83;;;6.70;;
44694;SDS011;32845;59.422;17.930;2022-07-23T01:06:57;34.63;;;7.10;;
44694;SDS011;32845;59.422;17.930;2022-07-23T01:11:28;23.20;;;5.78;;
44694;SDS011;32845;59.422;17.930;2022-07-23T01:16:00;25.77;;;6.35;;
44694;SDS011;32845;59.422;17.930;2022-07-23T01:20:31;27.90;;;6.53;;
44694;SDS011;32845;59.422;17.930;2022-07-23T01:25:07;15.27;;;4.95;;
44694;SDS011;32845;59.422;17.930;2022-07-23T01:29:39;18.70;;;4.85;;
44694;SDS011;32845;59.422;17.930;2022-07-23T01:34:19;17.88;;;4.75;;
44694;SDS011;32845;59.422;17.930;2022-07-23T01:38:50;21.52;;;5.10;;
44694;SDS011;32845;59.422;17.930;2022-07-23T01:43:21;19.42;;;4.88;;
44694;SDS011;32845;59.422;17.930;2022-07-23T01:47:51;14.20;;;3.17;;
44694;SDS011;32845;59.422;17.930;2022-07-23T01:52:22;14.38;;;3.58;;
44694;SDS011;32845;59.422;17.930;2022-07-23T01:56:53;15.95;;;3.03;;
44694;SDS011;32845;59.422;17.930;2022-07-23T02:01:24;11.55;;;2.60;;
44694;SDS011;32845;59.422;17.930;2022-07-23T02:05:54;11.43;;;2.67;;
44694;SDS011;32845;59.422;17.930;2022-07-23T02:10:25;7.47;;;2.38;;
44694;SDS011;32845;59.422;17.930;2022-07-23T02:14:57;8.13;;;1.83;;
44694;SDS011;32845;59.422;17.930;2022-07-23T02:19:27;6.63;;;1.40;;
44694;SDS011;32845;59.422;17.930;2022-07-23T02:24:04;5.50;;;1.33;;
44694;SDS011;32845;59.422;17.930;2022-07-23T02:28:35;6.82;;;1.23;;
44694;SDS011;32845;59.422;17.930;2022-07-23T02:33:05;5.90;;;1.42;;
44694;SDS011;32845;59.422;17.930;2022-07-23T02:37:36;5.25;;;1.10;;
44694;SDS011;32845;59.422;17.930;2022-07-23T02:42:06;4.15;;;0.80;;
44694;SDS011;32845;59.422;17.930;2022-07-23T02:46:37;1.77;;;0.60;;
44694;SDS011;32845;59.422;17.930;2022-07-23T02:51:08;2.38;;;0.70;;
44694;SDS011;32845;59.422;17.930;2022-07-23T02:55:39;1.55;;;0.73;;
44694;SDS011;32845;59.422;17.930;2022-07-23T03:00:09;3.78;;;1.02;;
44694;SDS011;32845;59.422;17.930;2022-07-23T03:04:40;2.17;;;0.55;;
44694;SDS011;32845;59.422;17.930;2022-07-23T03:09:12;5.53;;;0.70;;
44694;SDS011;32845;59.422;17.930;2022-07-23T03:13:43;2.85;;;0.60;;
44694;SDS011;32845;59.422;17.930;2022-07-23T03:18:13;3.13;;;0.95;;
44694;SDS011;32845;59.422;17.930;2022-07-23T03:22:44;5.75;;;0.90;;
44694;SDS011;32845;59.422;17.930;2022-07-23T03:27:15;1.58;;;0.70;;
44694;SDS011;32845;59.422;17.930;2022-07-23T03:31:45;4.80;;;0.90;;
44694;SDS011;32845;59.422;17.930;2022-07-23T03:36:16;3.67;;;0.73;;
44694;SDS011;32845;59.422;17.930;2022-07-23T03:40:46;2.13;;;0.90;;
44694;SDS011;32845;59.422;17.930;2022-07-23T03:45:17;2.97;;;0.77;;
44694;SDS011;32845;59.422;17.930;2022-07-23T03:49:48;1.35;;;0.60;;
44694;SDS011;32845;59.422;17.930;2022-07-23T03:54:19;3.78;;;1.00;;
44694;SDS011;32845;59.422;17.930;2022-07-23T03:58:50;4.97;;;0.90;;
44694;SDS011;32845;59.422;17.930;2022-07-23T04:03:20;3.50;;;0.82;;
44694;SDS011;32845;59.422;17.930;2022-07-23T04:07:51;5.35;;;1.00;;
44694;SDS011;32845;59.422;17.930;2022-07-23T04:12:22;3.40;;;1.02;;
44694;SDS011;32845;59.422;17.930;2022-07-23T04:16:53;2.58;;;0.80;;
44694;SDS011;32845;59.422;17.930;2022-07-23T04:21:24;5.60;;;1.33;;
44694;SDS011;32845;59.422;17.930;2022-07-23T04:25:55;2.80;;;0.93;;
44694;SDS011;32845;59.422;17.930;2022-07-23T04:30:25;3.63;;;1.10;;
44694;SDS011;32845;59.422;17.930;2022-07-23T04:34:56;4.13;;;1.02;;
44694;SDS011;32845;59.422;17.930;2022-07-23T04:39:26;5.05;;;1.05;;
44694;SDS011;32845;59.422;17.930;2022-07-23T04:43:57;4.78;;;1.20;;
44694;SDS011;32845;59.422;17.930;2022-07-23T04:48:28;4.82;;;1.08;;
44694;SDS011;32845;59.422;17.930;2022-07-23T04:52:58;4.25;;;1.17;;
44694;SDS011;32845;59.422;17.930;2022-07-23T04:57:29;3.25;;;1.10;;
44694;SDS011;32845;59.422;17.930;2022-07-23T05:01:59;2.72;;;0.90;;
44694;SDS011;32845;59.422;17.930;2022-07-23T05:06:30;4.50;;;1.10;;
44694;SDS011;32845;59.422;17.930;2022-07-23T05:11:01;4.38;;;0.80;;
44694;SDS011;32845;59.422;17.930;2022-07-23T05:15:31;2.35;;;1.00;;
44694;SDS011;32845;59.422;17.930;2022-07-23T05:20:02;4.60;;;1.13;;
44694;SDS011;32845;59.422;17.930;2022-07-23T05:24:33;2.47;;;0.95;;
44694;SDS011;32845;59.422;17.930;2022-07-23T05:29:04;1.27;;;0.80;;
44694;SDS011;32845;59.422;17.930;2022-07-23T05:33:34;2.15;;;0.88;;
44694;SDS011;32845;59.422;17.930;2022-07-23T05:38:05;3.05;;;0.70;;
44694;SDS011;32845;59.422;17.930;2022-07-23T05:42:36;1.45;;;0.70;;
44694;SDS011;32845;59.422;17.930;2022-07-23T05:47:07;2.95;;;0.82;;
44694;SDS011;32845;59.422;17.930;2022-07-23T05:51:38;4.22;;;0.75;;
44694;SDS011;32845;59.422;17.930;2022-07-23T05:56:09;1.75;;;0.90;;
44694;SDS011;32845;59.422;17.930;2022-07-23T06:00:39;2.38;;;0.73;;
44694;SDS011;32845;59.422;17.930;2022-07-23T06:05:10;1.30;;;0.65;;
44694;SDS011;32845;59.422;17.930;2022-07-23T06:09:41;2.30;;;0.68;;
44694;SDS011;32845;59.422;17.930;2022-07-23T06:14:11;9.43;;;1.25;;
44694;SDS011;32845;59.422;17.930;2022-07-23T06:18:42;1.35;;;0.73;;
44694;SDS011;32845;59.422;17.930;2022-07-23T06:23:13;1.15;;;0.50;;
44694;SDS011;32845;59.422;17.930;2022-07-23T06:27:44;1.70;;;0.60;;
44694;SDS011;32845;59.422;17.930;2022-07-23T06:32:14;0.47;;;0.40;;
44694;SDS011;32845;59.422;17.930;2022-07-23T06:36:45;1.75;;;0.60;;
44694;SDS011;32845;59.422;17.930;2022-07-23T06:41:16;1.40;;;0.63;;
44694;SDS011;32845;59.422;17.930;2022-07-23T06:45:46;2.83;;;0.60;;
44694;SDS011;32845;59.422;17.930;2022-07-23T06:50:17;2.60;;;0.50;;
44694;SDS011;32845;59.422;17.930;2022-07-23T06:54:48;2.67;;;0.68;;
44694;SDS011;32845;59.422;17.930;2022-07-23T06:59:19;3.30;;;0.68;;
44694;SDS011;32845;59.422;17.930;2022-07-23T07:03:49;0.73;;;0.50;;
44694;SDS011;32845;59.422;17.930;2022-07-23T07:08:21;1.70;;;0.50;;
44694;SDS011;32845;59.422;17.930;2022-07-23T07:12:52;1.92;;;0.70;;
44694;SDS011;32845;59.422;17.930;2022-07-23T07:17:22;1.20;;;0.52;;
44694;SDS011;32845;59.422;17.930;2022-07-23T07:21:53;0.45;;;0.45;;
44694;SDS011;32845;59.422;17.930;2022-07-23T07:26:23;3.17;;;0.50;;
44694;SDS011;32845;59.422;17.930;2022-07-23T07:30:54;2.05;;;0.60;;
44694;SDS011;32845;59.422;17.930;2022-07-23T07:35:25;0.88;;;0.47;;
44694;SDS011;32845;59.422;17.930;2022-07-23T07:39:56;1.58;;;0.40;;
44694;SDS011;32845;59.422;17.930;2022-07-23T07:44:26;0.93;;;0.47;;
44694;SDS011;32845;59.422;17.930;2022-07-23T07:48:57;0.40;;;0.40;;
44694;SDS011;32845;59.422;17.930;2022-07-23T07:53:27;1.13;;;0.40;;
44694;SDS011;32845;59.422;17.930;2022-07-23T07:57:58;4.50;;;0.50;;
44694;SDS011;32845;59.422;17.930;2022-07-23T08:02:29;0.47;;;0.30;;
44694;SDS011;32845;59.422;17.930;2022-07-23T08:07:09;0.63;;;0.40;;
44694;SDS011;32845;59.422;17.930;2022-07-23T08:11:39;0.98;;;0.30;;
44694;SDS011;32845;59.422;17.930;2022-07-23T08:16:10;1.40;;;0.30;;
44694;SDS011;32845;59.422;17.930;2022-07-23T08:20:41;1.27;;;0.30;;
44694;SDS011;32845;59.422;17.930;2022-07-23T08:25:20;1.00;;;0.32;;
44694;SDS011;32845;59.422;17.930;2022-07-23T08:29:55;1.13;;;0.38;;
44694;SDS011;32845;59.422;17.930;2022-07-23T08:34:26;0.30;;;0.20;;
44694;SDS011;32845;59.422;17.930;2022-07-23T08:38:57;1.17;;;0.38;;
44694;SDS011;32845;59.422;17.930;2022-07-23T08:43:30;1.20;;;0.20;;
44694;SDS011;32845;59.422;17.930;2022-07-23T08:48:02;0.85;;;0.20;;
44694;SDS011;32845;59.422;17.930;2022-07-23T08:52:33;2.35;;;0.28;;
44694;SDS011;32845;59.422;17.930;2022-07-23T08:57:05;0.10;;;0.10;;
44694;SDS011;32845;59.422;17.930;2022-07-23T09:01:36;0.20;;;0.20;;
44694;SDS011;32845;59.422;17.930;2022-07-23T09:06:07;0.73;;;0.30;;
44694;SDS011;32845;59.422;17.930;2022-07-23T09:15:27;0.38;;;0.20;;
44694;SDS011;32845;59.422;17.930;2022-07-23T09:20:06;1.05;;;0.40;;
44694;SDS011;32845;59.422;17.930;2022-07-23T09:29:41;2.05;;;0.22;;
44694;SDS011;32845;59.422;17.930;2022-07-23T09:34:31;0.10;;;0.10;;
44694;SDS011;32845;59.422;17.930;2022-07-23T09:39:08;1.27;;;0.40;;
44694;SDS011;32845;59.422;17.930;2022-07-23T09:43:40;1.17;;;0.50;;
44694;SDS011;32845;59.422;17.930;2022-07-23T09:52:46;0.73;;;0.40;;
44694;SDS011;32845;59.422;17.930;2022-07-23T09:57:18;8.80;;;0.50;;
44694;SDS011;32845;59.422;17.930;2022-07-23T10:01:51;1.65;;;0.38;;
44694;SDS011;32845;59.422;17.930;2022-07-23T10:06:24;2.03;;;0.45;;
44694;SDS011;32845;59.422;17.930;2022-07-23T10:10:56;2.25;;;0.47;;
44694;SDS011;32845;59.422;17.930;2022-07-23T10:15:28;0.70;;;0.40;;
44694;SDS011;32845;59.422;17.930;2022-07-23T10:19:59;0.77;;;0.40;;
44694;SDS011;32845;59.422;17.930;2022-07-23T10:34:19;3.95;;;0.50;;
44694;SDS011;32845;59.422;17.930;2022-07-23T10:48:43;2.78;;;0.40;;
44694;SDS011;32845;59.422;17.930;2022-07-23T10:53:15;1.52;;;0.50;;
44694;SDS011;32845;59.422;17.930;2022-07-23T10:57:48;0.43;;;0.40;;
44694;SDS011;32845;59.422;17.930;2022-07-23T11:02:23;1.13;;;0.38;;
44694;SDS011;32845;59.422;17.930;2022-07-23T11:11:24;1.25;;;0.50;;
44694;SDS011;32845;59.422;17.930;2022-07-23T11:16:03;1.35;;;0.50;;
44694;SDS011;32845;59.422;17.930;2022-07-23T11:20:41;0.70;;;0.60;;
44694;SDS011;32845;59.422;17.930;2022-07-23T11:25:12;4.72;;;0.52;;
44694;SDS011;32845;59.422;17.930;2022-07-23T11:29:58;5.78;;;1.00;;
44694;SDS011;32845;59.422;17.930;2022-07-23T11:34:38;2.58;;;0.52;;
44694;SDS011;32845;59.422;17.930;2022-07-23T11:39:13;1.67;;;0.80;;
44694;SDS011;32845;59.422;17.930;2022-07-23T11:43:43;0.63;;;0.50;;
44694;SDS011;32845;59.422;17.930;2022-07-23T11:48:18;1.17;;;0.60;;
44694;SDS011;32845;59.422;17.930;2022-07-23T11:52:57;2.58;;;0.60;;
44694;SDS011;32845;59.422;17.930;2022-07-23T11:57:32;3.10;;;0.63;;
44694;SDS011;32845;59.422;17.930;2022-07-23T12:02:05;3.67;;;0.70;;
44694;SDS011;32845;59.422;17.930;2022-07-23T12:06:39;1.27;;;0.60;;
44694;SDS011;32845;59.422;17.930;2022-07-23T12:11:11;3.60;;;0.40;;
44694;SDS011;32845;59.422;17.930;2022-07-23T12:15:48;2.45;;;0.60;;
44694;SDS011;32845;59.422;17.930;2022-07-23T12:20:22;1.23;;;0.52;;
44694;SDS011;32845;59.422;17.930;2022-07-23T12:29:35;1.67;;;0.70;;
44694;SDS011;32845;59.422;17.930;2022-07-23T12:34:13;2.72;;;0.60;;
44694;SDS011;32845;59.422;17.930;2022-07-23T12:38:47;1.73;;;0.68;;
44694;SDS011;32845;59.422;17.930;2022-07-23T12:43:32;2.13;;;0.70;;
44694;SDS011;32845;59.422;17.930;2022-07-23T12:48:05;2.28;;;0.70;;
44694;SDS011;32845;59.422;17.930;2022-07-23T12:52:37;2.47;;;0.68;;
44694;SDS011;32845;59.422;17.930;2022-07-23T12:57:07;1.05;;;0.40;;
44694;SDS011;32845;59.422;17.930;2022-07-23T13:01:44;1.77;;;0.52;;
44694;SDS011;32845;59.422;17.930;2022-07-23T13:06:24;1.55;;;0.68;;
44694;SDS011;32845;59.422;17.930;2022-07-23T13:10:54;6.38;;;0.80;;
44694;SDS011;32845;59.422;17.930;2022-07-23T13:15:25;0.80;;;0.45;;
44694;SDS011;32845;59.422;17.930;2022-07-23T13:19:56;1.15;;;0.70;;
44694;SDS011;32845;59.422;17.930;2022-07-23T13:24:27;1.45;;;0.65;;
44694;SDS011;32845;59.422;17.930;2022-07-23T13:28:57;2.30;;;0.60;;
44694;SDS011;32845;59.422;17.930;2022-07-23T13:33:28;2.50;;;0.40;;
44694;SDS011;32845;59.422;17.930;2022-07-23T13:37:59;2.17;;;0.50;;
44694;SDS011;32845;59.422;17.930;2022-07-23T13:42:29;1.98;;;0.80;;
44694;SDS011;32845;59.422;17.930;2022-07-23T13:47:00;3.25;;;0.77;;
44694;SDS011;32845;59.422;17.930;2022-07-23T13:51:31;0.60;;;0.55;;
44694;SDS011;32845;59.422;17.930;2022-07-23T13:56:01;1.83;;;0.65;;
44694;SDS011;32845;59.422;17.930;2022-07-23T14:00:33;2.00;;;0.73;;
44694;SDS011;32845;59.422;17.930;2022-07-23T14:05:05;1.92;;;0.60;;
44694;SDS011;32845;59.422;17.930;2022-07-23T14:09:38;2.30;;;0.70;;
44694;SDS011;32845;59.422;17.930;2022-07-23T14:14:08;2.67;;;0.60;;
44694;SDS011;32845;59.422;17.930;2022-07-23T14:18:39;3.55;;;0.70;;
44694;SDS011;32845;59.422;17.930;2022-07-23T14:23:10;0.40;;;0.40;;
44694;SDS011;32845;59.422;17.930;2022-07-23T14:27:40;0.73;;;0.50;;
44694;SDS011;32845;59.422;17.930;2022-07-23T14:32:11;2.13;;;0.63;;
44694;SDS011;32845;59.422;17.930;2022-07-23T14:36:42;1.90;;;0.60;;
44694;SDS011;32845;59.422;17.930;2022-07-23T14:41:12;2.33;;;0.55;;
44694;SDS011;32845;59.422;17.930;2022-07-23T14:45:43;0.77;;;0.50;;
44694;SDS011;32845;59.422;17.930;2022-07-23T14:50:14;1.45;;;0.60;;
44694;SDS011;32845;59.422;17.930;2022-07-23T14:54:50;1.92;;;0.50;;
44694;SDS011;32845;59.422;17.930;2022-07-23T14:59:21;0.80;;;0.50;;
44694;SDS011;32845;59.422;17.930;2022-07-23T15:03:52;3.85;;;0.50;;
44694;SDS011;32845;59.422;17.930;2022-07-23T15:08:23;5.40;;;0.73;;
44694;SDS011;32845;59.422;17.930;2022-07-23T15:12:54;0.90;;;0.50;;
44694;SDS011;32845;59.422;17.930;2022-07-23T15:17:24;5.22;;;0.60;;
44694;SDS011;32845;59.422;17.930;2022-07-23T15:21:55;1.42;;;0.60;;
44694;SDS011;32845;59.422;17.930;2022-07-23T15:26:27;1.90;;;0.60;;
44694;SDS011;32845;59.422;17.930;2022-07-23T15:30:58;0.70;;;0.40;;
44694;SDS011;32845;59.422;17.930;2022-07-23T15:35:30;1.23;;;0.40;;
44694;SDS011;32845;59.422;17.930;2022-07-23T15:40:01;3.50;;;0.57;;
44694;SDS011;32845;59.422;17.930;2022-07-23T15:44:35;2.13;;;0.95;;
44694;SDS011;32845;59.422;17.930;2022-07-23T15:49:06;1.33;;;0.63;;
44694;SDS011;32845;59.422;17.930;2022-07-23T15:53:36;1.30;;;0.88;;
44694;SDS011;32845;59.422;17.930;2022-07-23T15:58:13;2.72;;;0.80;;
44694;SDS011;32845;59.422;17.930;2022-07-23T16:02:43;1.92;;;0.80;;
44694;SDS011;32845;59.422;17.930;2022-07-23T16:07:14;0.75;;;0.45;;
44694;SDS011;32845;59.422;17.930;2022-07-23T16:11:46;3.20;;;0.70;;
44694;SDS011;32845;59.422;17.930;2022-07-23T16:16:16;1.33;;;0.57;;
44694;SDS011;32845;59.422;17.930;2022-07-23T16:20:48;3.40;;;0.70;;
44694;SDS011;32845;59.422;17.930;2022-07-23T16:25:20;2.58;;;0.80;;
44694;SDS011;32845;59.422;17.930;2022-07-23T16:29:50;1.20;;;0.63;;
44694;SDS011;32845;59.422;17.930;2022-07-23T16:34:21;1.13;;;0.70;;
44694;SDS011;32845;59.422;17.930;2022-07-23T16:38:52;2.92;;;0.80;;
44694;SDS011;32845;59.422;17.930;2022-07-23T16:43:23;2.17;;;0.80;;
44694;SDS011;32845;59.422;17.930;2022-07-23T16:47:56;1.60;;;1.00;;
44694;SDS011;32845;59.422;17.930;2022-07-23T16:52:27;2.88;;;0.80;;
44694;SDS011;32845;59.422;17.930;2022-07-23T16:56:58;0.68;;;0.50;;
44694;SDS011;32845;59.422;17.930;2022-07-23T17:01:29;1.30;;;0.68;;
44694;SDS011;32845;59.422;17.930;2022-07-23T17:06:04;2.22;;;1.40;;
44694;SDS011;32845;59.422;17.930;2022-07-23T17:10:35;8.40;;;1.90;;
44694;SDS011;32845;59.422;17.930;2022-07-23T17:15:06;8.48;;;1.65;;
44694;SDS011;32845;59.422;17.930;2022-07-23T17:19:37;6.43;;;1.58;;
44694;SDS011;32845;59.422;17.930;2022-07-23T17:24:08;3.50;;;1.05;;
44694;SDS011;32845;59.422;17.930;2022-07-23T17:28:39;1.73;;;1.00;;
44694;SDS011;32845;59.422;17.930;2022-07-23T17:33:09;1.10;;;0.65;;
44694;SDS011;32845;59.422;17.930;2022-07-23T17:37:45;2.70;;;0.90;;
44694;SDS011;32845;59.422;17.930;2022-07-23T17:42:16;0.75;;;0.68;;
44694;SDS011;32845;59.422;17.930;2022-07-23T17:46:57;2.83;;;1.30;;
44694;SDS011;32845;59.422;17.930;2022-07-23T17:51:27;1.17;;;0.80;;
44694;SDS011;32845;59.422;17.930;2022-07-23T17:55:58;2.72;;;0.80;;
44694;SDS011;32845;59.422;17.930;2022-07-23T18:00:32;4.82;;;0.85;;
44694;SDS011;32845;59.422;17.930;2022-07-23T18:05:05;1.25;;;0.70;;
44694;SDS011;32845;59.422;17.930;2022-07-23T18:09:36;2.25;;;0.65;;
44694;SDS011;32845;59.422;17.930;2022-07-23T18:14:07;0.60;;;0.60;;
44694;SDS011;32845;59.422;17.930;2022-07-23T18:18:39;0.98;;;0.50;;
44694;SDS011;32845;59.422;17.930;2022-07-23T18:23:11;1.23;;;0.68;;
44694;SDS011;32845;59.422;17.930;2022-07-23T18:27:41;1.27;;;0.50;;
44694;SDS011;32845;59.422;17.930;2022-07-23T18:32:12;1.75;;;0.82;;
44694;SDS011;32845;59.422;17.930;2022-07-23T18:36:43;1.75;;;0.60;;
44694;SDS011;32845;59.422;17.930;2022-07-23T18:41:13;0.73;;;0.47;;
44694;SDS011;32845;59.422;17.930;2022-07-23T18:45:49;1.48;;;0.60;;
44694;SDS011;32845;59.422;17.930;2022-07-23T18:50:20;0.90;;;0.40;;
44694;SDS011;32845;59.422;17.930;2022-07-23T18:54:51;2.03;;;0.90;;
44694;SDS011;32845;59.422;17.930;2022-07-23T18:59:22;0.57;;;0.40;;
44694;SDS011;32845;59.422;17.930;2022-07-23T19:03:53;0.88;;;0.60;;
44694;SDS011;32845;59.422;17.930;2022-07-23T19:08:33;0.43;;;0.35;;
44694;SDS011;32845;59.422;17.930;2022-07-23T19:13:04;2.38;;;0.40;;
44694;SDS011;32845;59.422;17.930;2022-07-23T19:17:35;1.35;;;0.50;;
44694;SDS011;32845;59.422;17.930;2022-07-23T19:22:06;0.50;;;0.50;;
44694;SDS011;32845;59.422;17.930;2022-07-23T19:26:38;0.85;;;0.70;;
44694;SDS011;32845;59.422;17.930;2022-07-23T19:31:09;2.53;;;0.85;;
44694;SDS011;32845;59.422;17.930;2022-07-23T19:35:40;6.18;;;0.70;;
44694;SDS011;32845;59.422;17.930;2022-07-23T19:40:10;7.82;;;2.15;;
44694;SDS011;32845;59.422;17.930;2022-07-23T19:44:41;1.70;;;0.55;;
44694;SDS011;32845;59.422;17.930;2022-07-23T19:49:12;5.97;;;1.00;;
44694;SDS011;32845;59.422;17.930;2022-07-23T19:53:43;1.65;;;0.73;;
44694;SDS011;32845;59.422;17.930;2022-07-23T19:58:13;1.08;;;0.73;;
44694;SDS011;32845;59.422;17.930;2022-07-23T20:02:44;1.35;;;0.70;;
44694;SDS011;32845;59.422;17.930;2022-07-23T20:07:15;2.15;;;1.17;;
44694;SDS011;32845;59.422;17.930;2022-07-23T20:11:46;4.93;;;0.93;;
44694;SDS011;32845;59.422;17.930;2022-07-23T20:16:16;7.47;;;1.30;;
44694;SDS011;32845;59.422;17.930;2022-07-23T20:20:47;9.10;;;1.40;;
44694;SDS011;32845;59.422;17.930;2022-07-23T20:25:18;7.35;;;1.30;;
44694;SDS011;32845;59.422;17.930;2022-07-23T20:29:48;8.95;;;1.35;;
44694;SDS011;32845;59.422;17.930;2022-07-23T20:34:21;4.30;;;1.30;;
44694;SDS011;32845;59.422;17.930;2022-07-23T20:38:51;1.98;;;1.10;;
44694;SDS011;32845;59.422;17.930;2022-07-23T20:43:22;5.80;;;1.10;;
44694;SDS011;32845;59.422;17.930;2022-07-23T20:47:52;5.13;;;1.00;;
44694;SDS011;32845;59.422;17.930;2022-07-23T20:52:23;11.13;;;1.35;;
44694;SDS011;32845;59.422;17.930;2022-07-23T20:56:54;2.97;;;1.10;;
44694;SDS011;32845;59.422;17.930;2022-07-23T21:01:25;7.95;;;1.13;;
44694;SDS011;32845;59.422;17.930;2022-07-23T21:05:55;4.20;;;0.80;;
44694;SDS011;32845;59.422;17.930;2022-07-23T21:10:26;4.38;;;1.00;;
44694;SDS011;32845;59.422;17.930;2022-07-23T21:15:02;1.95;;;0.70;;
44694;SDS011;32845;59.422;17.930;2022-07-23T21:19:34;3.55;;;0.90;;
44694;SDS011;32845;59.422;17.930;2022-07-23T21:24:05;2.08;;;0.80;;
44694;SDS011;32845;59.422;17.930;2022-07-23T21:28:36;5.10;;;0.93;;
44694;SDS011;32845;59.422;17.930;2022-07-23T21:33:07;1.95;;;0.85;;
44694;SDS011;32845;59.422;17.930;2022-07-23T21:37:43;2.30;;;0.80;;
44694;SDS011;32845;59.422;17.930;2022-07-23T21:42:14;5.22;;;0.90;;
44694;SDS011;32845;59.422;17.930;2022-07-23T21:46:44;4.15;;;1.08;;
44694;SDS011;32845;59.422;17.930;2022-07-23T21:51:15;2.80;;;0.80;;
44694;SDS011;32845;59.422;17.930;2022-07-23T21:55:51;1.45;;;0.77;;
44694;SDS011;32845;59.422;17.930;2022-07-23T22:00:22;1.27;;;0.65;;
44694;SDS011;32845;59.422;17.930;2022-07-23T22:04:57;0.80;;;0.60;;
44694;SDS011;32845;59.422;17.930;2022-07-23T22:09:28;0.82;;;0.65;;
44694;SDS011;32845;59.422;17.930;2022-07-23T22:13:59;0.80;;;0.70;;
44694;SDS011;32845;59.422;17.930;2022-07-23T22:18:30;2.03;;;0.75;;
44694;SDS011;32845;59.422;17.930;2022-07-23T22:23:01;1.45;;;0.82;;
44694;SDS011;32845;59.422;17.930;2022-07-23T22:27:31;2.72;;;0.55;;
44694;SDS011;32845;59.422;17.930;2022-07-23T22:32:02;0.90;;;0.68;;
44694;SDS011;32845;59.422;17.930;2022-07-23T22:36:38;2.40;;;0.70;;
44694;SDS011;32845;59.422;17.930;2022-07-23T22:41:08;2.30;;;1.65;;
44694;SDS011;32845;59.422;17.930;2022-07-23T22:45:39;2.35;;;1.60;;
44694;SDS011;32845;59.422;17.930;2022-07-23T22:50:09;6.80;;;1.20;;
44694;SDS011;32845;59.422;17.930;2022-07-23T22:54:40;2.13;;;0.90;;
44694;SDS011;32845;59.422;17.930;2022-07-23T22:59:11;0.90;;;0.70;;
44694;SDS011;32845;59.422;17.930;2022-07-23T23:03:42;0.88;;;0.60;;
44694;SDS011;32845;59.422;17.930;2022-07-23T23:08:22;2.15;;;0.75;;
44694;SDS011;32845;59.422;17.930;2022-07-23T23:12:53;0.70;;;0.70;;
44694;SDS011;32845;59.422;17.930;2022-07-23T23:17:24;1.27;;;0.80;;
44694;SDS011;32845;59.422;17.930;2022-07-23T23:21:54;1.10;;;0.70;;
44694;SDS011;32845;59.422;17.930;2022-07-23T23:26:25;1.00;;;0.80;;
44694;SDS011;32845;59.422;17.930;2022-07-23T23:30:55;0.80;;;0.60;;
44694;SDS011;32845;59.422;17.930;2022-07-23T23:35:31;1.10;;;0.80;;
44694;SDS011;32845;59.422;17.930;2022-07-23T23:40:02;2.28;;;0.60;;
44694;SDS011;32845;59.422;17.930;2022-07-23T23:44:33;1.27;;;0.63;;
44694;SDS011;32845;59.422;17.930;2022-07-23T23:49:03;2.95;;;0.80;;
44694;SDS011;32845;59.422;17.930;2022-07-23T23:53:34;2.05;;;0.70;;
44694;SDS011;32845;59.422;17.930;2022-07-23T23:58:05;0.70;;;0.70;;
